Capitol Logistics 329


KRIV
March Air Reserve Base
Riverside, California, US
KCLT
Charlotte/Douglas International Airport
Charlotte, North Carolina, US

Route Details

Aircraft Information
Primary: Boeing 767-300BDSF
Backup: Not Available
Route Data
Distance: 1791nm
Sched. Duration: 4h 00m
Avg. Duration: 4h 18m (+19m)
Times Flown: 4
Recm'd Route: TRM J134 DRK J6 IRW KM33G SPKER NEWBB TAZZA FILPZ3
Planned Altitude: 35,000ft
Origin Wx: KRIV 290358Z AUTO 00000KT 10SM CLR 12/01 A3004 RMK AO2 SLP169 T01170005
Dest. Wx: KCLT 290452Z 17011KT 10SM SCT012 BKN045 BKN200 OVC250 21/19 A2995 RMK AO2 SLP134 T02060194 402220161 $
Notes:

Financial History
Total Freight: 345,407lbs
Average Load: 86,352lbs/flt
Fuel Used: 166,745lbs
Avg. Fuel Used: 41,686lbs/flt
Fuel Expense: $115,054
Avg. Fuel Expense: $28,764
Avg. Fuel Cost: $0.69/lbs
Total Gross Income: $565,560
Pilot Pay: $986
Total Expenses: $61,288
Total Revenue: $384,831
Average Revenue: $141,389.97